sensor_id;sensor_type;location;lat;lon;timestamp;P1;durP1;ratioP1;P2;durP2;ratioP2
70342;SDS011;57767;42.068;24.752;2023-03-26T00:00:18;17.92;;;14.60;;
70342;SDS011;57767;42.068;24.752;2023-03-26T00:01:21;16.33;;;14.27;;
70342;SDS011;57767;42.068;24.752;2023-03-26T00:02:24;17.33;;;14.15;;
70342;SDS011;57767;42.068;24.752;2023-03-26T00:03:30;16.35;;;13.93;;
70342;SDS011;57767;42.068;24.752;2023-03-26T00:04:37;15.90;;;14.02;;
70342;SDS011;57767;42.068;24.752;2023-03-26T00:05:39;15.13;;;13.63;;
70342;SDS011;57767;42.068;24.752;2023-03-26T00:06:41;16.38;;;14.68;;
70342;SDS011;57767;42.068;24.752;2023-03-26T00:07:43;16.95;;;15.13;;
70342;SDS011;57767;42.068;24.752;2023-03-26T00:08:44;17.00;;;14.93;;
70342;SDS011;57767;42.068;24.752;2023-03-26T00:09:46;17.98;;;15.82;;
70342;SDS011;57767;42.068;24.752;2023-03-26T00:10:48;16.33;;;14.38;;
70342;SDS011;57767;42.068;24.752;2023-03-26T00:11:50;18.00;;;14.68;;
70342;SDS011;57767;42.068;24.752;2023-03-26T00:12:52;17.67;;;15.80;;
70342;SDS011;57767;42.068;24.752;2023-03-26T00:13:54;19.17;;;15.55;;
70342;SDS011;57767;42.068;24.752;2023-03-26T00:14:59;18.23;;;13.63;;
70342;SDS011;57767;42.068;24.752;2023-03-26T00:16:01;15.32;;;12.07;;
70342;SDS011;57767;42.068;24.752;2023-03-26T00:17:04;14.25;;;12.25;;
70342;SDS011;57767;42.068;24.752;2023-03-26T00:18:05;14.98;;;11.20;;
70342;SDS011;57767;42.068;24.752;2023-03-26T00:19:09;14.65;;;10.77;;
70342;SDS011;57767;42.068;24.752;2023-03-26T00:20:12;16.52;;;10.82;;
70342;SDS011;57767;42.068;24.752;2023-03-26T00:21:15;16.20;;;10.82;;
70342;SDS011;57767;42.068;24.752;2023-03-26T00:22:18;18.13;;;11.30;;
70342;SDS011;57767;42.068;24.752;2023-03-26T00:23:19;14.88;;;10.60;;
70342;SDS011;57767;42.068;24.752;2023-03-26T00:24:21;15.75;;;9.93;;
70342;SDS011;57767;42.068;24.752;2023-03-26T00:25:29;15.38;;;10.30;;
70342;SDS011;57767;42.068;24.752;2023-03-26T00:26:32;15.18;;;11.07;;
70342;SDS011;57767;42.068;24.752;2023-03-26T00:27:35;13.82;;;10.20;;
70342;SDS011;57767;42.068;24.752;2023-03-26T00:28:39;14.63;;;10.60;;
70342;SDS011;57767;42.068;24.752;2023-03-26T00:29:42;12.25;;;10.20;;
70342;SDS011;57767;42.068;24.752;2023-03-26T00:30:44;13.68;;;9.25;;
70342;SDS011;57767;42.068;24.752;2023-03-26T00:31:46;11.48;;;9.15;;
70342;SDS011;57767;42.068;24.752;2023-03-26T00:32:48;11.68;;;8.70;;
70342;SDS011;57767;42.068;24.752;2023-03-26T00:33:54;13.30;;;9.88;;
70342;SDS011;57767;42.068;24.752;2023-03-26T00:34:56;11.57;;;9.98;;
70342;SDS011;57767;42.068;24.752;2023-03-26T00:35:59;11.52;;;9.25;;
70342;SDS011;57767;42.068;24.752;2023-03-26T00:37:04;14.00;;;9.73;;
70342;SDS011;57767;42.068;24.752;2023-03-26T00:38:06;12.48;;;10.25;;
70342;SDS011;57767;42.068;24.752;2023-03-26T00:39:08;11.85;;;10.35;;
70342;SDS011;57767;42.068;24.752;2023-03-26T00:40:10;11.18;;;9.98;;
70342;SDS011;57767;42.068;24.752;2023-03-26T00:41:16;12.63;;;9.80;;
70342;SDS011;57767;42.068;24.752;2023-03-26T00:42:23;13.35;;;9.40;;
70342;SDS011;57767;42.068;24.752;2023-03-26T00:43:24;13.10;;;9.60;;
70342;SDS011;57767;42.068;24.752;2023-03-26T00:44:26;10.43;;;8.85;;
70342;SDS011;57767;42.068;24.752;2023-03-26T00:45:28;10.98;;;8.85;;
70342;SDS011;57767;42.068;24.752;2023-03-26T00:46:30;11.43;;;9.90;;
70342;SDS011;57767;42.068;24.752;2023-03-26T00:47:32;11.90;;;9.00;;
70342;SDS011;57767;42.068;24.752;2023-03-26T00:48:34;10.27;;;8.88;;
70342;SDS011;57767;42.068;24.752;2023-03-26T00:49:46;11.15;;;8.90;;
70342;SDS011;57767;42.068;24.752;2023-03-26T00:50:49;10.73;;;8.60;;
70342;SDS011;57767;42.068;24.752;2023-03-26T00:51:51;10.02;;;7.90;;
70342;SDS011;57767;42.068;24.752;2023-03-26T00:52:53;11.18;;;8.10;;
70342;SDS011;57767;42.068;24.752;2023-03-26T00:53:56;9.68;;;7.75;;
70342;SDS011;57767;42.068;24.752;2023-03-26T00:54:58;10.95;;;8.13;;
70342;SDS011;57767;42.068;24.752;2023-03-26T00:56:00;13.40;;;8.40;;
70342;SDS011;57767;42.068;24.752;2023-03-26T00:57:02;10.10;;;8.23;;
70342;SDS011;57767;42.068;24.752;2023-03-26T00:58:07;12.50;;;8.00;;
70342;SDS011;57767;42.068;24.752;2023-03-26T00:59:12;8.82;;;7.45;;
70342;SDS011;57767;42.068;24.752;2023-03-26T01:00:14;7.82;;;7.03;;
70342;SDS011;57767;42.068;24.752;2023-03-26T01:01:23;9.80;;;7.60;;
70342;SDS011;57767;42.068;24.752;2023-03-26T01:02:29;8.93;;;7.70;;
70342;SDS011;57767;42.068;24.752;2023-03-26T01:03:34;10.93;;;7.68;;
70342;SDS011;57767;42.068;24.752;2023-03-26T01:04:38;10.43;;;8.70;;
70342;SDS011;57767;42.068;24.752;2023-03-26T01:05:42;11.70;;;7.80;;
70342;SDS011;57767;42.068;24.752;2023-03-26T01:06:45;8.80;;;7.63;;
70342;SDS011;57767;42.068;24.752;2023-03-26T01:07:47;8.23;;;7.30;;
70342;SDS011;57767;42.068;24.752;2023-03-26T01:08:49;8.15;;;7.15;;
70342;SDS011;57767;42.068;24.752;2023-03-26T01:09:57;7.93;;;7.10;;
70342;SDS011;57767;42.068;24.752;2023-03-26T01:11:02;9.30;;;7.00;;
70342;SDS011;57767;42.068;24.752;2023-03-26T01:12:09;8.40;;;7.07;;
70342;SDS011;57767;42.068;24.752;2023-03-26T01:13:21;7.72;;;6.90;;
70342;SDS011;57767;42.068;24.752;2023-03-26T01:14:24;8.35;;;6.78;;
70342;SDS011;57767;42.068;24.752;2023-03-26T01:15:29;7.93;;;7.13;;
70342;SDS011;57767;42.068;24.752;2023-03-26T01:16:35;9.10;;;6.95;;
70342;SDS011;57767;42.068;24.752;2023-03-26T01:18:43;8.02;;;7.13;;
70342;SDS011;57767;42.068;24.752;2023-03-26T01:21:13;11.40;;;7.60;;
70342;SDS011;57767;42.068;24.752;2023-03-26T01:22:24;8.30;;;7.15;;
70342;SDS011;57767;42.068;24.752;2023-03-26T01:23:29;10.35;;;7.88;;
70342;SDS011;57767;42.068;24.752;2023-03-26T01:24:42;9.73;;;8.45;;
70342;SDS011;57767;42.068;24.752;2023-03-26T01:25:48;10.30;;;8.85;;
70342;SDS011;57767;42.068;24.752;2023-03-26T01:28:21;10.45;;;9.10;;
70342;SDS011;57767;42.068;24.752;2023-03-26T01:29:29;11.85;;;10.13;;
70342;SDS011;57767;42.068;24.752;2023-03-26T01:33:26;12.25;;;10.63;;
70342;SDS011;57767;42.068;24.752;2023-03-26T01:34:43;11.40;;;10.30;;
70342;SDS011;57767;42.068;24.752;2023-03-26T01:37:48;10.50;;;8.68;;
70342;SDS011;57767;42.068;24.752;2023-03-26T01:40:03;11.07;;;7.22;;
70342;SDS011;57767;42.068;24.752;2023-03-26T01:41:16;7.47;;;6.50;;
70342;SDS011;57767;42.068;24.752;2023-03-26T01:45:16;6.75;;;5.82;;
70342;SDS011;57767;42.068;24.752;2023-03-26T01:46:24;8.75;;;6.10;;
70342;SDS011;57767;42.068;24.752;2023-03-26T01:47:27;7.40;;;5.53;;
70342;SDS011;57767;42.068;24.752;2023-03-26T01:48:40;8.50;;;5.28;;
70342;SDS011;57767;42.068;24.752;2023-03-26T01:49:43;5.20;;;4.70;;
70342;SDS011;57767;42.068;24.752;2023-03-26T01:50:45;5.80;;;4.88;;
70342;SDS011;57767;42.068;24.752;2023-03-26T01:51:49;5.70;;;4.70;;
70342;SDS011;57767;42.068;24.752;2023-03-26T01:52:51;6.47;;;4.28;;
70342;SDS011;57767;42.068;24.752;2023-03-26T01:53:53;8.15;;;4.18;;
70342;SDS011;57767;42.068;24.752;2023-03-26T01:54:56;4.72;;;4.03;;
70342;SDS011;57767;42.068;24.752;2023-03-26T02:03:58;4.72;;;3.85;;
70342;SDS011;57767;42.068;24.752;2023-03-26T02:05:32;4.30;;;3.55;;
70342;SDS011;57767;42.068;24.752;2023-03-26T02:06:45;5.20;;;3.85;;
70342;SDS011;57767;42.068;24.752;2023-03-26T02:08:22;4.95;;;3.53;;
70342;SDS011;57767;42.068;24.752;2023-03-26T02:09:37;7.25;;;3.90;;
70342;SDS011;57767;42.068;24.752;2023-03-26T02:10:47;5.05;;;3.55;;
70342;SDS011;57767;42.068;24.752;2023-03-26T02:11:55;6.28;;;4.75;;
70342;SDS011;57767;42.068;24.752;2023-03-26T02:12:58;7.18;;;3.85;;
70342;SDS011;57767;42.068;24.752;2023-03-26T02:14:02;7.20;;;4.05;;
70342;SDS011;57767;42.068;24.752;2023-03-26T02:15:05;5.65;;;3.92;;
70342;SDS011;57767;42.068;24.752;2023-03-26T02:16:09;5.82;;;4.28;;
70342;SDS011;57767;42.068;24.752;2023-03-26T02:17:16;5.68;;;4.30;;
70342;SDS011;57767;42.068;24.752;2023-03-26T02:18:19;4.75;;;3.90;;
70342;SDS011;57767;42.068;24.752;2023-03-26T02:19:24;5.90;;;4.18;;
70342;SDS011;57767;42.068;24.752;2023-03-26T02:20:26;6.32;;;4.68;;
70342;SDS011;57767;42.068;24.752;2023-03-26T02:21:31;5.70;;;3.70;;
70342;SDS011;57767;42.068;24.752;2023-03-26T02:22:35;5.55;;;3.40;;
70342;SDS011;57767;42.068;24.752;2023-03-26T02:23:41;6.20;;;3.22;;
70342;SDS011;57767;42.068;24.752;2023-03-26T02:24:47;4.50;;;3.17;;
70342;SDS011;57767;42.068;24.752;2023-03-26T02:25:49;4.30;;;3.63;;
70342;SDS011;57767;42.068;24.752;2023-03-26T02:26:50;4.88;;;3.50;;
70342;SDS011;57767;42.068;24.752;2023-03-26T02:27:52;4.65;;;3.47;;
70342;SDS011;57767;42.068;24.752;2023-03-26T02:28:54;3.58;;;2.95;;
70342;SDS011;57767;42.068;24.752;2023-03-26T02:29:57;3.75;;;2.78;;
70342;SDS011;57767;42.068;24.752;2023-03-26T02:30:58;6.25;;;3.10;;
70342;SDS011;57767;42.068;24.752;2023-03-26T02:32:05;4.57;;;2.70;;
70342;SDS011;57767;42.068;24.752;2023-03-26T02:33:08;4.22;;;3.30;;
70342;SDS011;57767;42.068;24.752;2023-03-26T02:34:10;4.65;;;3.05;;
70342;SDS011;57767;42.068;24.752;2023-03-26T02:35:12;3.47;;;2.95;;
70342;SDS011;57767;42.068;24.752;2023-03-26T02:36:14;3.22;;;2.65;;
70342;SDS011;57767;42.068;24.752;2023-03-26T02:37:18;3.33;;;2.78;;
70342;SDS011;57767;42.068;24.752;2023-03-26T02:38:20;3.35;;;2.70;;
70342;SDS011;57767;42.068;24.752;2023-03-26T02:39:25;3.53;;;2.60;;
70342;SDS011;57767;42.068;24.752;2023-03-26T02:40:27;2.30;;;2.10;;
70342;SDS011;57767;42.068;24.752;2023-03-26T02:41:29;4.10;;;3.50;;
70342;SDS011;57767;42.068;24.752;2023-03-26T02:42:31;3.63;;;2.50;;
70342;SDS011;57767;42.068;24.752;2023-03-26T02:43:33;3.65;;;2.20;;
70342;SDS011;57767;42.068;24.752;2023-03-26T02:44:35;5.13;;;2.20;;
70342;SDS011;57767;42.068;24.752;2023-03-26T02:45:39;2.10;;;1.90;;
70342;SDS011;57767;42.068;24.752;2023-03-26T02:46:41;3.10;;;2.13;;
70342;SDS011;57767;42.068;24.752;2023-03-26T02:47:42;2.08;;;1.88;;
70342;SDS011;57767;42.068;24.752;2023-03-26T02:48:46;2.05;;;1.70;;
70342;SDS011;57767;42.068;24.752;2023-03-26T02:49:48;2.13;;;1.67;;
70342;SDS011;57767;42.068;24.752;2023-03-26T02:50:50;3.03;;;1.60;;
70342;SDS011;57767;42.068;24.752;2023-03-26T02:51:55;1.90;;;1.70;;
70342;SDS011;57767;42.068;24.752;2023-03-26T02:52:57;1.73;;;1.63;;
70342;SDS011;57767;42.068;24.752;2023-03-26T02:54:02;1.55;;;1.45;;
70342;SDS011;57767;42.068;24.752;2023-03-26T02:55:04;1.65;;;1.40;;
70342;SDS011;57767;42.068;24.752;2023-03-26T02:56:07;2.17;;;1.58;;
70342;SDS011;57767;42.068;24.752;2023-03-26T02:57:09;2.15;;;1.50;;
70342;SDS011;57767;42.068;24.752;2023-03-26T02:58:11;2.80;;;1.90;;
70342;SDS011;57767;42.068;24.752;2023-03-26T02:59:17;2.30;;;1.60;;
70342;SDS011;57767;42.068;24.752;2023-03-26T03:00:19;1.88;;;1.40;;
70342;SDS011;57767;42.068;24.752;2023-03-26T03:01:23;1.50;;;1.40;;
70342;SDS011;57767;42.068;24.752;2023-03-26T03:02:24;1.40;;;1.30;;
70342;SDS011;57767;42.068;24.752;2023-03-26T03:03:29;1.90;;;1.30;;
70342;SDS011;57767;42.068;24.752;2023-03-26T03:04:31;1.70;;;1.27;;
70342;SDS011;57767;42.068;24.752;2023-03-26T03:05:33;1.45;;;1.20;;
70342;SDS011;57767;42.068;24.752;2023-03-26T03:06:35;3.58;;;1.40;;
70342;SDS011;57767;42.068;24.752;2023-03-26T03:07:38;2.03;;;1.40;;
70342;SDS011;57767;42.068;24.752;2023-03-26T03:08:41;1.58;;;1.48;;
70342;SDS011;57767;42.068;24.752;2023-03-26T03:09:46;1.60;;;1.30;;
70342;SDS011;57767;42.068;24.752;2023-03-26T03:12:07;1.60;;;1.50;;
70342;SDS011;57767;42.068;24.752;2023-03-26T03:13:09;1.52;;;1.42;;
70342;SDS011;57767;42.068;24.752;2023-03-26T03:14:10;1.38;;;1.25;;
70342;SDS011;57767;42.068;24.752;2023-03-26T03:15:12;1.20;;;1.10;;
70342;SDS011;57767;42.068;24.752;2023-03-26T03:16:14;3.47;;;1.10;;
70342;SDS011;57767;42.068;24.752;2023-03-26T03:17:16;1.50;;;1.25;;
70342;SDS011;57767;42.068;24.752;2023-03-26T03:18:21;1.30;;;1.20;;
70342;SDS011;57767;42.068;24.752;2023-03-26T03:19:22;1.33;;;1.23;;
70342;SDS011;57767;42.068;24.752;2023-03-26T03:20:24;2.33;;;1.00;;
70342;SDS011;57767;42.068;24.752;2023-03-26T03:21:26;1.15;;;1.05;;
70342;SDS011;57767;42.068;24.752;2023-03-26T03:22:29;1.10;;;1.00;;
70342;SDS011;57767;42.068;24.752;2023-03-26T03:23:31;1.10;;;1.00;;
70342;SDS011;57767;42.068;24.752;2023-03-26T03:24:32;1.20;;;1.10;;
70342;SDS011;57767;42.068;24.752;2023-03-26T03:25:34;10.88;;;1.30;;
70342;SDS011;57767;42.068;24.752;2023-03-26T03:26:36;1.10;;;0.85;;
70342;SDS011;57767;42.068;24.752;2023-03-26T03:27:38;1.05;;;0.95;;
70342;SDS011;57767;42.068;24.752;2023-03-26T03:28:41;1.02;;;1.00;;
70342;SDS011;57767;42.068;24.752;2023-03-26T03:29:45;1.48;;;1.00;;
70342;SDS011;57767;42.068;24.752;2023-03-26T03:30:47;1.13;;;1.02;;
70342;SDS011;57767;42.068;24.752;2023-03-26T03:31:49;3.05;;;1.20;;
70342;SDS011;57767;42.068;24.752;2023-03-26T03:32:51;1.33;;;1.20;;
70342;SDS011;57767;42.068;24.752;2023-03-26T03:33:52;1.35;;;1.05;;
70342;SDS011;57767;42.068;24.752;2023-03-26T03:34:54;3.17;;;1.15;;
70342;SDS011;57767;42.068;24.752;2023-03-26T03:35:56;2.40;;;1.40;;
70342;SDS011;57767;42.068;24.752;2023-03-26T03:36:59;2.63;;;1.17;;
70342;SDS011;57767;42.068;24.752;2023-03-26T03:38:01;2.53;;;1.17;;
70342;SDS011;57767;42.068;24.752;2023-03-26T03:39:03;1.15;;;1.02;;
70342;SDS011;57767;42.068;24.752;2023-03-26T03:40:05;1.73;;;1.20;;
70342;SDS011;57767;42.068;24.752;2023-03-26T03:41:11;1.00;;;0.90;;
70342;SDS011;57767;42.068;24.752;2023-03-26T03:42:12;1.90;;;1.20;;
70342;SDS011;57767;42.068;24.752;2023-03-26T03:43:14;1.10;;;1.00;;
70342;SDS011;57767;42.068;24.752;2023-03-26T03:44:16;1.27;;;1.10;;
70342;SDS011;57767;42.068;24.752;2023-03-26T03:45:18;1.23;;;1.13;;
70342;SDS011;57767;42.068;24.752;2023-03-26T03:46:19;4.10;;;1.30;;
70342;SDS011;57767;42.068;24.752;2023-03-26T03:47:21;1.50;;;1.00;;
70342;SDS011;57767;42.068;24.752;2023-03-26T03:48:23;1.42;;;0.82;;
70342;SDS011;57767;42.068;24.752;2023-03-26T03:49:25;2.38;;;1.40;;
70342;SDS011;57767;42.068;24.752;2023-03-26T03:50:26;2.10;;;1.23;;
70342;SDS011;57767;42.068;24.752;2023-03-26T03:51:28;1.00;;;1.00;;
70342;SDS011;57767;42.068;24.752;2023-03-26T03:52:30;2.35;;;1.10;;
70342;SDS011;57767;42.068;24.752;2023-03-26T03:53:32;1.10;;;1.10;;
70342;SDS011;57767;42.068;24.752;2023-03-26T03:54:37;1.20;;;1.00;;
70342;SDS011;57767;42.068;24.752;2023-03-26T03:55:39;1.00;;;1.00;;
70342;SDS011;57767;42.068;24.752;2023-03-26T03:56:42;1.13;;;1.10;;
70342;SDS011;57767;42.068;24.752;2023-03-26T03:57:46;1.15;;;1.02;;
70342;SDS011;57767;42.068;24.752;2023-03-26T03:58:47;1.20;;;1.10;;
70342;SDS011;57767;42.068;24.752;2023-03-26T03:59:49;1.58;;;1.20;;
70342;SDS011;57767;42.068;24.752;2023-03-26T04:00:51;1.63;;;1.20;;
70342;SDS011;57767;42.068;24.752;2023-03-26T04:01:53;1.17;;;1.08;;
70342;SDS011;57767;42.068;24.752;2023-03-26T04:02:55;2.45;;;1.30;;
70342;SDS011;57767;42.068;24.752;2023-03-26T04:03:58;2.08;;;1.40;;
70342;SDS011;57767;42.068;24.752;2023-03-26T04:05:00;1.35;;;1.20;;
70342;SDS011;57767;42.068;24.752;2023-03-26T04:06:06;2.72;;;1.20;;
70342;SDS011;57767;42.068;24.752;2023-03-26T04:07:11;1.95;;;1.35;;
70342;SDS011;57767;42.068;24.752;2023-03-26T04:08:13;1.63;;;1.17;;
70342;SDS011;57767;42.068;24.752;2023-03-26T04:09:14;2.55;;;1.10;;
70342;SDS011;57767;42.068;24.752;2023-03-26T04:10:16;3.30;;;1.20;;
70342;SDS011;57767;42.068;24.752;2023-03-26T04:11:18;1.25;;;1.15;;
70342;SDS011;57767;42.068;24.752;2023-03-26T04:12:20;2.15;;;1.80;;
70342;SDS011;57767;42.068;24.752;2023-03-26T04:13:21;8.05;;;4.20;;
70342;SDS011;57767;42.068;24.752;2023-03-26T04:14:23;2.05;;;1.67;;
70342;SDS011;57767;42.068;24.752;2023-03-26T04:15:25;1.70;;;1.30;;
70342;SDS011;57767;42.068;24.752;2023-03-26T04:16:26;1.48;;;1.27;;
70342;SDS011;57767;42.068;24.752;2023-03-26T04:17:28;1.30;;;1.17;;
70342;SDS011;57767;42.068;24.752;2023-03-26T04:18:33;2.47;;;1.33;;
70342;SDS011;57767;42.068;24.752;2023-03-26T04:19:35;1.10;;;1.00;;
70342;SDS011;57767;42.068;24.752;2023-03-26T04:20:38;1.40;;;1.30;;
70342;SDS011;57767;42.068;24.752;2023-03-26T04:21:46;1.73;;;1.30;;
70342;SDS011;57767;42.068;24.752;2023-03-26T04:22:49;2.20;;;2.00;;
70342;SDS011;57767;42.068;24.752;2023-03-26T04:23:51;1.23;;;1.08;;
70342;SDS011;57767;42.068;24.752;2023-03-26T04:24:54;1.63;;;1.30;;
70342;SDS011;57767;42.068;24.752;2023-03-26T04:25:56;0.90;;;0.90;;
70342;SDS011;57767;42.068;24.752;2023-03-26T04:27:05;1.40;;;1.00;;
70342;SDS011;57767;42.068;24.752;2023-03-26T06:06:15;1.42;;;1.23;;
70342;SDS011;57767;42.068;24.752;2023-03-26T06:07:18;1.30;;;1.20;;
70342;SDS011;57767;42.068;24.752;2023-03-26T06:08:20;1.20;;;1.15;;
70342;SDS011;57767;42.068;24.752;2023-03-26T06:09:22;12.48;;;8.68;;
70342;SDS011;57767;42.068;24.752;2023-03-26T06:10:24;1.52;;;1.42;;
70342;SDS011;57767;42.068;24.752;2023-03-26T06:11:26;1.88;;;1.40;;
70342;SDS011;57767;42.068;24.752;2023-03-26T06:12:27;1.60;;;1.50;;
70342;SDS011;57767;42.068;24.752;2023-03-26T06:13:29;2.65;;;1.83;;
70342;SDS011;57767;42.068;24.752;2023-03-26T06:14:31;1.85;;;1.23;;
70342;SDS011;57767;42.068;24.752;2023-03-26T06:15:33;3.03;;;1.20;;
70342;SDS011;57767;42.068;24.752;2023-03-26T06:16:35;1.23;;;1.13;;
70342;SDS011;57767;42.068;24.752;2023-03-26T06:17:37;1.30;;;1.00;;
70342;SDS011;57767;42.068;24.752;2023-03-26T06:18:39;1.27;;;1.17;;
70342;SDS011;57767;42.068;24.752;2023-03-26T06:19:41;3.10;;;1.30;;
70342;SDS011;57767;42.068;24.752;2023-03-26T06:20:43;1.55;;;1.30;;
70342;SDS011;57767;42.068;24.752;2023-03-26T06:21:44;4.07;;;1.27;;
70342;SDS011;57767;42.068;24.752;2023-03-26T06:22:46;1.10;;;1.10;;
70342;SDS011;57767;42.068;24.752;2023-03-26T06:23:48;1.45;;;1.35;;
70342;SDS011;57767;42.068;24.752;2023-03-26T06:24:52;1.40;;;1.30;;
70342;SDS011;57767;42.068;24.752;2023-03-26T06:25:53;1.83;;;1.40;;
70342;SDS011;57767;42.068;24.752;2023-03-26T06:26:56;1.40;;;1.30;;
70342;SDS011;57767;42.068;24.752;2023-03-26T06:27:58;2.05;;;1.33;;
70342;SDS011;57767;42.068;24.752;2023-03-26T06:28:59;1.85;;;1.40;;
70342;SDS011;57767;42.068;24.752;2023-03-26T06:30:01;2.95;;;1.27;;
70342;SDS011;57767;42.068;24.752;2023-03-26T06:31:03;2.13;;;1.52;;
70342;SDS011;57767;42.068;24.752;2023-03-26T06:32:05;6.78;;;5.38;;
70342;SDS011;57767;42.068;24.752;2023-03-26T06:33:20;1.40;;;1.30;;
70342;SDS011;57767;42.068;24.752;2023-03-26T06:34:24;2.30;;;1.42;;
70342;SDS011;57767;42.068;24.752;2023-03-26T06:35:26;3.00;;;1.23;;
70342;SDS011;57767;42.068;24.752;2023-03-26T06:36:30;4.07;;;1.40;;
70342;SDS011;57767;42.068;24.752;2023-03-26T06:37:31;1.35;;;1.25;;
70342;SDS011;57767;42.068;24.752;2023-03-26T06:38:33;0.98;;;0.98;;
70342;SDS011;57767;42.068;24.752;2023-03-26T06:39:35;1.10;;;1.00;;
70342;SDS011;57767;42.068;24.752;2023-03-26T06:40:37;1.58;;;1.00;;
70342;SDS011;57767;42.068;24.752;2023-03-26T06:41:39;1.42;;;1.08;;
70342;SDS011;57767;42.068;24.752;2023-03-26T06:42:41;1.42;;;1.33;;
70342;SDS011;57767;42.068;24.752;2023-03-26T06:44:03;1.92;;;1.42;;
70342;SDS011;57767;42.068;24.752;2023-03-26T06:45:05;1.73;;;1.38;;
70342;SDS011;57767;42.068;24.752;2023-03-26T06:46:07;2.65;;;1.20;;
70342;SDS011;57767;42.068;24.752;2023-03-26T06:47:09;2.92;;;1.27;;
70342;SDS011;57767;42.068;24.752;2023-03-26T06:48:11;2.92;;;1.20;;
70342;SDS011;57767;42.068;24.752;2023-03-26T06:49:13;1.30;;;1.20;;
70342;SDS011;57767;42.068;24.752;2023-03-26T06:50:14;1.20;;;1.10;;
70342;SDS011;57767;42.068;24.752;2023-03-26T06:51:19;3.33;;;1.10;;
70342;SDS011;57767;42.068;24.752;2023-03-26T06:52:21;2.15;;;1.30;;
70342;SDS011;57767;42.068;24.752;2023-03-26T06:53:23;1.13;;;1.08;;
70342;SDS011;57767;42.068;24.752;2023-03-26T06:54:25;2.08;;;1.50;;
70342;SDS011;57767;42.068;24.752;2023-03-26T06:55:27;1.52;;;1.40;;
70342;SDS011;57767;42.068;24.752;2023-03-26T06:56:29;1.10;;;1.00;;
70342;SDS011;57767;42.068;24.752;2023-03-26T06:57:31;1.17;;;1.08;;
70342;SDS011;57767;42.068;24.752;2023-03-26T06:58:33;1.45;;;1.30;;
70342;SDS011;57767;42.068;24.752;2023-03-26T06:59:35;2.28;;;1.33;;
70342;SDS011;57767;42.068;24.752;2023-03-26T07:00:37;1.40;;;1.10;;
70342;SDS011;57767;42.068;24.752;2023-03-26T07:01:39;2.38;;;1.30;;
70342;SDS011;57767;42.068;24.752;2023-03-26T07:02:41;1.58;;;1.48;;
70342;SDS011;57767;42.068;24.752;2023-03-26T07:03:43;1.67;;;1.50;;
70342;SDS011;57767;42.068;24.752;2023-03-26T07:04:44;1.55;;;1.23;;
70342;SDS011;57767;42.068;24.752;2023-03-26T07:05:46;1.40;;;1.30;;
70342;SDS011;57767;42.068;24.752;2023-03-26T07:06:48;2.03;;;1.40;;
70342;SDS011;57767;42.068;24.752;2023-03-26T07:07:50;1.50;;;1.40;;
70342;SDS011;57767;42.068;24.752;2023-03-26T07:08:52;1.88;;;1.67;;
70342;SDS011;57767;42.068;24.752;2023-03-26T07:09:55;2.25;;;1.30;;
70342;SDS011;57767;42.068;24.752;2023-03-26T07:10:57;1.67;;;1.48;;
70342;SDS011;57767;42.068;24.752;2023-03-26T07:11:59;2.35;;;1.58;;
70342;SDS011;57767;42.068;24.752;2023-03-26T07:13:01;3.97;;;3.58;;
70342;SDS011;57767;42.068;24.752;2023-03-26T07:14:03;2.45;;;1.67;;
70342;SDS011;57767;42.068;24.752;2023-03-26T07:15:06;3.03;;;1.48;;
70342;SDS011;57767;42.068;24.752;2023-03-26T07:16:08;1.60;;;1.38;;
70342;SDS011;57767;42.068;24.752;2023-03-26T07:17:10;1.50;;;1.33;;
70342;SDS011;57767;42.068;24.752;2023-03-26T07:18:12;3.10;;;1.63;;
70342;SDS011;57767;42.068;24.752;2023-03-26T07:19:13;2.50;;;1.60;;
70342;SDS011;57767;42.068;24.752;2023-03-26T07:20:15;2.28;;;1.48;;
70342;SDS011;57767;42.068;24.752;2023-03-26T07:21:17;3.47;;;1.52;;
70342;SDS011;57767;42.068;24.752;2023-03-26T07:22:21;2.05;;;1.48;;
70342;SDS011;57767;42.068;24.752;2023-03-26T07:23:24;2.42;;;1.80;;
70342;SDS011;57767;42.068;24.752;2023-03-26T07:24:26;1.65;;;1.30;;
70342;SDS011;57767;42.068;24.752;2023-03-26T07:25:30;2.25;;;1.52;;
70342;SDS011;57767;42.068;24.752;2023-03-26T07:28:59;1.77;;;1.55;;
70342;SDS011;57767;42.068;24.752;2023-03-26T07:31:31;2.05;;;1.50;;
70342;SDS011;57767;42.068;24.752;2023-03-26T07:32:45;3.05;;;1.70;;
70342;SDS011;57767;42.068;24.752;2023-03-26T07:35:25;1.40;;;1.30;;
70342;SDS011;57767;42.068;24.752;2023-03-26T07:36:34;2.40;;;1.43;;
70342;SDS011;57767;42.068;24.752;2023-03-26T07:39:43;4.10;;;1.50;;
70342;SDS011;57767;42.068;24.752;2023-03-26T07:42:07;6.15;;;1.42;;
70342;SDS011;57767;42.068;24.752;2023-03-26T07:46:03;2.10;;;1.10;;
70342;SDS011;57767;42.068;24.752;2023-03-26T07:47:48;1.80;;;1.30;;
70342;SDS011;57767;42.068;24.752;2023-03-26T07:48:38;3.05;;;1.48;;
70342;SDS011;57767;42.068;24.752;2023-03-26T07:49:47;1.77;;;1.25;;
70342;SDS011;57767;42.068;24.752;2023-03-26T07:50:49;2.60;;;1.33;;
70342;SDS011;57767;42.068;24.752;2023-03-26T07:51:51;2.78;;;1.30;;
70342;SDS011;57767;42.068;24.752;2023-03-26T07:52:53;4.53;;;1.42;;
70342;SDS011;57767;42.068;24.752;2023-03-26T07:53:55;2.30;;;1.50;;
70342;SDS011;57767;42.068;24.752;2023-03-26T07:55:01;2.38;;;1.30;;
70342;SDS011;57767;42.068;24.752;2023-03-26T07:59:53;1.80;;;1.30;;
70342;SDS011;57767;42.068;24.752;2023-03-26T08:01:04;1.73;;;1.45;;
70342;SDS011;57767;42.068;24.752;2023-03-26T08:13:58;1.50;;;1.40;;
70342;SDS011;57767;42.068;24.752;2023-03-26T08:16:39;4.18;;;2.38;;
70342;SDS011;57767;42.068;24.752;2023-03-26T08:19:12;3.58;;;1.30;;
70342;SDS011;57767;42.068;24.752;2023-03-26T08:20:34;4.15;;;1.50;;
70342;SDS011;57767;42.068;24.752;2023-03-26T08:21:43;4.38;;;1.38;;
70342;SDS011;57767;42.068;24.752;2023-03-26T08:24:30;2.25;;;1.40;;
70342;SDS011;57767;42.068;24.752;2023-03-26T08:30:29;1.40;;;1.30;;
70342;SDS011;57767;42.068;24.752;2023-03-26T08:31:32;2.17;;;1.60;;
70342;SDS011;57767;42.068;24.752;2023-03-26T08:32:36;1.83;;;1.67;;
70342;SDS011;57767;42.068;24.752;2023-03-26T08:33:39;3.38;;;1.85;;
70342;SDS011;57767;42.068;24.752;2023-03-26T08:34:41;1.83;;;1.60;;
70342;SDS011;57767;42.068;24.752;2023-03-26T08:35:43;1.75;;;1.60;;
70342;SDS011;57767;42.068;24.752;2023-03-26T08:36:46;2.47;;;1.48;;
70342;SDS011;57767;42.068;24.752;2023-03-26T08:37:48;1.42;;;1.33;;
70342;SDS011;57767;42.068;24.752;2023-03-26T08:38:49;1.67;;;1.58;;
70342;SDS011;57767;42.068;24.752;2023-03-26T08:39:52;1.48;;;1.38;;
70342;SDS011;57767;42.068;24.752;2023-03-26T08:44:31;1.67;;;1.55;;
70342;SDS011;57767;42.068;24.752;2023-03-26T08:45:25;1.60;;;1.50;;
70342;SDS011;57767;42.068;24.752;2023-03-26T08:49:19;4.35;;;1.60;;
70342;SDS011;57767;42.068;24.752;2023-03-26T08:56:23;1.60;;;1.50;;
70342;SDS011;57767;42.068;24.752;2023-03-26T09:01:56;1.95;;;1.30;;
70342;SDS011;57767;42.068;24.752;2023-03-26T09:08:42;8.23;;;2.03;;
70342;SDS011;57767;42.068;24.752;2023-03-26T09:12:25;5.10;;;1.85;;
70342;SDS011;57767;42.068;24.752;2023-03-26T09:13:40;5.15;;;1.98;;
70342;SDS011;57767;42.068;24.752;2023-03-26T09:16:16;3.92;;;1.67;;
70342;SDS011;57767;42.068;24.752;2023-03-26T09:20:29;2.22;;;1.70;;
70342;SDS011;57767;42.068;24.752;2023-03-26T09:28:20;2.20;;;0.93;;
70342;SDS011;57767;42.068;24.752;2023-03-26T09:31:40;4.63;;;1.30;;
70342;SDS011;57767;42.068;24.752;2023-03-26T09:36:18;1.75;;;1.05;;